Time;durP1;ratioP1;P1;durP2;ratioP2;P2;SDS_P1;SDS_P2;PMS_P1;PMS_P2;Temp;Humidity;BMP_temperature;BMP_pressure;BME280_temperature;BME280_humidity;BME280_pressure;Samples;Min_cycle;Max_cycle;Signal;HPM_P1;HPM_P2
2022/08/22 00:02:09;;;;;;;39.28;18.63;;;17.20;99.90;;;;;;5112122;28;20020;-80
2022/08/22 00:04:38;;;;;;;48.78;22.05;;;17.20;99.90;;;;;;5111642;28;20023;-80
2022/08/22 00:07:07;;;;;;;39.83;20.05;;;17.20;99.90;;;;;;5111651;28;20081;-80
2022/08/22 00:09:51;;;;;;;35.72;19.55;;;17.20;99.90;;;;;;5111886;28;20389;-77
2022/08/22 00:12:20;;;;;;;36.58;19.20;;;17.20;99.90;;;;;;5111825;28;20104;-77
2022/08/22 00:15:09;;;;;;;49.22;22.17;;;17.30;99.90;;;;;;5112644;27;20434;-77
2022/08/22 00:17:41;;;;;;;36.67;18.80;;;17.30;99.90;;;;;;5112391;28;20016;-80
2022/08/22 00:20:17;;;;;;;31.80;18.43;;;17.40;99.90;;;;;;5115668;28;20077;-80
2022/08/22 00:23:01;;;;;;;40.05;21.25;;;17.40;99.90;;;;;;5116631;28;20016;-77
2022/08/22 00:25:46;;;;;;;31.63;19.95;;;17.30;99.90;;;;;;5115764;28;20069;-77
2022/08/22 00:28:16;;;;;;;42.20;23.90;;;17.40;99.90;;;;;;5123149;27;20022;-77
2022/08/22 00:31:00;;;;;;;37.97;23.50;;;17.40;99.90;;;;;;5116581;28;20032;-80
2022/08/22 00:33:39;;;;;;;41.30;22.27;;;17.40;99.90;;;;;;5116257;28;20039;-77
2022/08/22 00:36:15;;;;;;;36.85;24.83;;;17.40;99.90;;;;;;5116903;28;20076;-77
2022/08/22 00:38:48;;;;;;;40.40;23.88;;;17.50;99.90;;;;;;5114925;28;20058;-77
2022/08/22 00:41:33;;;;;;;43.80;25.75;;;17.50;99.90;;;;;;5115280;28;20028;-77
2022/08/22 00:44:32;;;;;;;45.38;26.52;;;17.50;99.90;;;;;;5114664;28;20031;-80
2022/08/22 00:47:17;;;;;;;34.47;20.27;;;17.60;99.90;;;;;;5115197;28;20535;-80
2022/08/22 00:49:42;;;;;;;27.90;17.88;;;17.60;99.90;;;;;;5114735;28;20496;-80
2022/08/22 00:52:27;;;;;;;19.30;13.18;;;17.60;99.90;;;;;;5115115;28;20043;-81
2022/08/22 00:55:07;;;;;;;19.75;13.05;;;17.50;99.90;;;;;;5114783;28;20114;-77
2022/08/22 00:58:11;;;;;;;16.50;12.25;;;17.40;99.90;;;;;;5115954;28;20073;-81
2022/08/22 01:00:45;;;;;;;17.88;11.23;;;17.40;99.90;;;;;;5056642;28;20065;-80
2022/08/22 01:03:16;;;;;;;17.50;10.52;;;17.20;99.90;;;;;;5056280;28;20123;-80
2022/08/22 01:06:41;;;;;;;21.97;12.27;;;17.20;99.90;;;;;;5076207;28;20043;-77
2022/08/22 01:09:06;;;;;;;20.48;12.50;;;17.10;99.90;;;;;;5050332;28;20048;-78
2022/08/22 01:12:02;;;;;;;18.35;10.88;;;17.10;99.90;;;;;;5053335;28;20032;-80
2022/08/22 01:14:56;;;;;;;16.73;10.35;;;17.00;99.90;;;;;;5087529;28;20044;-77
2022/08/22 01:17:55;;;;;;;18.95;11.10;;;17.00;99.90;;;;;;5097274;28;20465;-80
2022/08/22 01:20:29;;;;;;;17.90;11.23;;;17.10;99.90;;;;;;5115832;28;20015;-77
2022/08/22 01:23:07;;;;;;;22.02;12.73;;;17.10;99.90;;;;;;5115429;28;20011;-80
2022/08/22 01:25:45;;;;;;;18.33;12.27;;;17.10;99.90;;;;;;5115749;27;20028;-77
2022/08/22 01:28:50;;;;;;;19.73;12.70;;;17.10;99.90;;;;;;5122357;27;20069;-80
2022/08/22 01:31:43;;;;;;;20.42;13.55;;;17.10;99.90;;;;;;5115418;28;20045;-77
2022/08/22 01:34:15;;;;;;;;;;;17.20;99.90;;;;;;5114542;28;20038;-77
2022/08/22 01:37:00;;;;;;;24.35;13.30;;;17.20;99.90;;;;;;5114389;28;19903;-77
2022/08/22 01:39:37;;;;;;;30.15;17.45;;;17.20;99.90;;;;;;5115439;27;20019;-77
2022/08/22 01:42:24;;;;;;;19.02;12.63;;;17.20;99.90;;;;;;5115599;28;20019;-80
2022/08/22 01:45:17;;;;;;;18.30;12.30;;;17.20;99.90;;;;;;5114992;28;20123;-77
2022/08/22 01:48:04;;;;;;;21.73;13.30;;;17.20;99.90;;;;;;5115156;28;20023;-77
2022/08/22 01:50:37;;;;;;;19.60;12.40;;;17.20;99.90;;;;;;5114042;28;20472;-80
2022/08/22 01:53:21;;;;;;;19.73;11.95;;;17.20;99.90;;;;;;5114724;28;20032;-80
2022/08/22 01:56:22;;;;;;;15.15;10.90;;;17.10;99.90;;;;;;5114070;28;20016;-80
2022/08/22 01:59:40;;;;;;;17.98;12.60;;;17.10;99.90;;;;;;5113923;28;20147;-80
2022/08/22 02:02:13;;;;;;;19.67;11.98;;;17.10;99.90;;;;;;5072344;28;20031;-77
2022/08/22 02:04:46;;;;;;;23.02;14.18;;;17.10;99.90;;;;;;5110883;28;20131;-77
2022/08/22 02:07:27;;;;;;;25.92;15.00;;;17.10;99.90;;;;;;5113650;28;20157;-80
2022/08/22 02:10:30;;;;;;;21.75;13.90;;;17.10;99.90;;;;;;5113139;28;20028;-80
2022/08/22 02:13:16;;;;;;;;;;;17.10;99.90;;;;;;5113489;28;20024;-78
2022/08/22 02:15:48;;;;;;;22.00;13.50;;;17.10;99.90;;;;;;5114710;28;19903;-77
2022/08/22 02:18:28;;;;;;;19.92;13.20;;;17.10;99.90;;;;;;5113096;28;20430;-80
2022/08/22 02:21:49;;;;;;;26.25;13.77;;;17.10;99.90;;;;;;5113397;28;20059;-77
2022/08/22 02:24:32;;;;;;;19.65;12.25;;;17.20;99.90;;;;;;5069332;28;20032;-77
2022/08/22 02:27:04;;;;;;;23.17;15.52;;;17.20;99.90;;;;;;5101122;27;20019;-80
2022/08/22 02:29:47;;;;;;;25.83;19.10;;;17.20;99.90;;;;;;5116457;27;20077;-80
2022/08/22 02:32:18;;;;;;;29.75;21.55;;;17.20;99.90;;;;;;5112675;28;20035;-77
2022/08/22 02:35:13;;;;;;;30.85;22.48;;;17.30;99.90;;;;;;5113401;28;20023;-77
2022/08/22 02:37:47;;;;;;;33.13;25.48;;;17.30;99.90;;;;;;5113445;28;20073;-80
2022/08/22 02:40:33;;;;;;;34.42;25.55;;;17.40;99.90;;;;;;5112924;28;20134;-78
2022/08/22 02:43:22;;;;;;;33.47;26.05;;;17.40;99.90;;;;;;5112671;28;20022;-80
2022/08/22 02:45:52;;;;;;;36.05;25.83;;;17.40;99.90;;;;;;5112934;28;20020;-77
2022/08/22 02:49:11;;;;;;;33.85;25.15;;;17.50;99.90;;;;;;5113792;28;20422;-77
2022/08/22 02:51:57;;;;;;;32.47;25.67;;;17.50;99.90;;;;;;5112245;28;20047;-80
2022/08/22 02:54:47;;;;;;;33.05;24.30;;;17.50;99.90;;;;;;5112850;28;20027;-77
2022/08/22 02:57:19;;;;;;;33.80;25.15;;;17.50;99.90;;;;;;5113750;28;20028;-80
2022/08/22 03:00:07;;;;;;;;;;;17.50;99.90;;;;;;5114388;28;20073;-80
2022/08/22 03:02:41;;;;;;;35.20;25.42;;;17.50;99.90;;;;;;5113631;28;20389;-77
2022/08/22 03:05:27;;;;;;;31.50;23.50;;;17.50;99.90;;;;;;5112643;28;20019;-77
2022/08/22 03:08:07;;;;;;;34.15;24.67;;;17.50;99.90;;;;;;5112273;28;20050;-81
2022/08/22 03:10:38;;;;;;;31.15;24.00;;;17.50;99.90;;;;;;5113760;28;20069;-77
2022/08/22 03:13:10;;;;;;;31.50;23.60;;;17.50;99.90;;;;;;5112426;28;20035;-76
2022/08/22 03:15:52;;;;;;;31.33;24.55;;;17.50;99.90;;;;;;5112550;28;20075;-80
2022/08/22 03:18:26;;;;;;;31.17;24.30;;;17.50;99.90;;;;;;5113267;28;20051;-80
2022/08/22 03:21:12;;;;;;;29.77;23.30;;;17.40;99.90;;;;;;5113745;28;20480;-80
2022/08/22 03:23:45;;;;;;;32.13;24.08;;;17.40;99.90;;;;;;5112445;28;20024;-77
2022/08/22 03:26:28;;;;;;;31.80;23.88;;;17.40;99.90;;;;;;5112324;28;20016;-77
2022/08/22 03:29:10;;;;;;;29.45;23.98;;;17.50;99.90;;;;;;5103710;28;20023;-80
2022/08/22 03:31:36;;;;;;;29.73;22.90;;;17.50;99.90;;;;;;5112365;28;20384;-78
2022/08/22 03:34:15;;;;;;;29.90;23.30;;;17.50;99.90;;;;;;5112002;28;20289;-80
2022/08/22 03:36:58;;;;;;;27.55;21.17;;;17.50;99.90;;;;;;5112271;28;20020;-77
2022/08/22 03:39:54;;;;;;;31.85;23.63;;;17.50;99.90;;;;;;5112380;28;20023;-77
2022/08/22 03:42:37;;;;;;;27.58;22.75;;;17.50;99.90;;;;;;5112162;28;20427;-78
2022/08/22 03:45:30;;;;;;;25.48;20.90;;;17.50;99.90;;;;;;5113513;28;20161;-78
2022/08/22 03:48:17;;;;;;;32.15;23.75;;;17.50;99.90;;;;;;5113297;28;20409;-81
2022/08/22 03:51:04;;;;;;;29.35;22.67;;;17.50;99.90;;;;;;5112013;28;20772;-77
2022/08/22 03:53:55;;;;;;;29.92;25.20;;;17.50;99.90;;;;;;5114121;28;20031;-81
2022/08/22 03:56:30;;;;;;;32.35;22.70;;;17.50;99.90;;;;;;5117499;28;20084;-77
2022/08/22 03:59:17;;;;;;;33.15;25.65;;;17.50;99.90;;;;;;5115885;28;20115;-77
2022/08/22 04:02:02;;;;;;;32.63;23.25;;;17.50;99.90;;;;;;5116107;28;20028;-81
2022/08/22 04:04:56;;;;;;;28.77;23.73;;;17.50;99.90;;;;;;5115563;28;20501;-81
2022/08/22 04:07:52;;;;;;;38.53;23.23;;;17.50;99.90;;;;;;5116131;28;20032;-81
2022/08/22 04:10:38;;;;;;;32.75;22.85;;;17.60;99.90;;;;;;5115596;28;20662;-77
2022/08/22 04:13:20;;;;;;;32.70;23.58;;;17.60;99.90;;;;;;5116650;28;20047;-81
2022/08/22 04:15:51;;;;;;;31.70;23.83;;;17.60;99.90;;;;;;5115699;28;20031;-78
2022/08/22 04:18:23;;;;;;;33.40;23.40;;;17.60;99.90;;;;;;5115441;28;20380;-81
2022/08/22 04:21:16;;;;;;;31.20;23.47;;;17.60;99.90;;;;;;5115920;28;20019;-81
2022/08/22 04:23:45;;;;;;;29.77;22.67;;;17.60;99.90;;;;;;5115390;28;20301;-77
2022/08/22 04:26:20;;;;;;;30.60;22.58;;;17.70;99.90;;;;;;5116902;28;20023;-81
2022/08/22 04:29:11;;;;;;;32.30;24.75;;;17.60;99.90;;;;;;5119371;27;20031;-81
2022/08/22 04:32:03;;;;;;;31.95;24.00;;;17.60;99.90;;;;;;5104955;28;20494;-77
2022/08/22 04:35:05;;;;;;;36.78;26.10;;;17.60;99.90;;;;;;5095296;28;20043;-78
2022/08/22 04:37:55;;;;;;;39.45;25.80;;;17.60;99.90;;;;;;5063318;28;20111;-78
2022/08/22 04:40:27;;;;;;;35.88;25.70;;;17.60;99.90;;;;;;5096090;28;20104;-82
2022/08/22 04:42:55;;;;;;;;;;;17.60;99.90;;;;;;5099414;28;20076;-78
2022/08/22 04:45:47;;;;;;;37.13;24.35;;;17.50;99.90;;;;;;5115218;28;19907;-81
2022/08/22 04:48:48;;;;;;;37.58;26.85;;;17.40;99.90;;;;;;5116037;28;20030;-78
2022/08/22 04:51:23;;;;;;;35.60;23.95;;;17.40;99.90;;;;;;5114201;28;20043;-78
2022/08/22 04:54:11;;;;;;;41.33;25.92;;;17.40;99.90;;;;;;5115036;28;20031;-78
2022/08/22 04:56:55;;;;;;;43.80;28.40;;;17.30;99.90;;;;;;5115034;28;20023;-78
2022/08/22 04:59:23;;;;;;;37.47;27.98;;;17.40;99.90;;;;;;5114766;28;20080;-78
2022/08/22 05:01:56;;;;;;;41.50;27.83;;;17.40;99.90;;;;;;5114847;28;20023;-81
2022/08/22 05:04:24;;;;;;;40.00;28.70;;;17.40;99.90;;;;;;5110722;28;20015;-78
2022/08/22 05:06:55;;;;;;;41.88;27.75;;;17.50;99.90;;;;;;5113234;28;20023;-78
2022/08/22 05:09:27;;;;;;;37.92;27.10;;;17.50;99.90;;;;;;5092935;28;20028;-81
2022/08/22 05:11:59;;;;;;;39.35;27.85;;;17.40;99.90;;;;;;5095625;28;20020;-77
2022/08/22 05:14:45;;;;;;;41.50;26.25;;;17.40;99.90;;;;;;5110934;28;20028;-77
2022/08/22 05:17:21;;;;;;;41.15;28.48;;;17.40;99.90;;;;;;5114344;28;20058;-82
2022/08/22 05:19:50;;;;;;;41.15;27.65;;;17.40;99.90;;;;;;5116133;27;20043;-81
2022/08/22 05:22:22;;;;;;;41.50;28.15;;;17.40;99.90;;;;;;5115681;28;20661;-80
2022/08/22 05:24:51;;;;;;;43.05;29.05;;;17.40;99.90;;;;;;5115719;28;20389;-81
2022/08/22 05:27:21;;;;;;;40.20;26.27;;;17.40;99.90;;;;;;5118676;27;20085;-78
2022/08/22 05:29:52;;;;;;;40.05;28.83;;;17.40;99.90;;;;;;5114584;28;20027;-78
2022/08/22 05:32:27;;;;;;;41.00;28.38;;;17.40;99.90;;;;;;5111713;28;20043;-81
2022/08/22 05:34:58;;;;;;;42.58;29.30;;;17.40;99.90;;;;;;5113823;28;20027;-82
2022/08/22 05:37:30;;;;;;;45.92;29.65;;;17.50;99.90;;;;;;5114315;28;20062;-78
2022/08/22 05:39:59;;;;;;;47.97;30.52;;;17.50;99.90;;;;;;5099523;28;20025;-77
2022/08/22 05:42:30;;;;;;;47.40;31.42;;;17.50;99.90;;;;;;5097098;28;20043;-77
2022/08/22 05:45:00;;;;;;;40.55;28.63;;;17.50;99.90;;;;;;5098890;28;20047;-78
2022/08/22 05:47:38;;;;;;;43.22;30.45;;;17.40;99.90;;;;;;5099233;28;20076;-78
2022/08/22 05:50:09;;;;;;;48.08;28.85;;;17.50;99.90;;;;;;5106226;28;20067;-77
2022/08/22 05:52:44;;;;;;;46.00;30.13;;;17.50;99.90;;;;;;5103925;27;20393;-78
2022/08/22 05:55:27;;;;;;;42.30;28.55;;;17.50;99.90;;;;;;5098899;28;20024;-82
2022/08/22 05:58:36;;;;;;;44.45;30.10;;;17.50;99.90;;;;;;5093371;28;20381;-82
2022/08/22 06:01:41;;;;;;;49.67;31.48;;;17.50;99.90;;;;;;5083876;28;20504;-78
2022/08/22 06:04:33;;;;;;;43.63;29.58;;;17.50;99.90;;;;;;5106123;28;20020;-77
2022/08/22 06:07:27;;;;;;;44.63;30.33;;;17.60;99.90;;;;;;5102903;28;20126;-77
2022/08/22 06:10:24;;;;;;;46.25;31.60;;;17.60;99.90;;;;;;5109193;28;20035;-78
2022/08/22 06:13:05;;;;;;;40.25;28.63;;;17.50;99.90;;;;;;5113344;28;20126;-82
2022/08/22 06:16:02;;;;;;;43.00;29.77;;;17.60;99.90;;;;;;5113042;28;20514;-82
2022/08/22 06:18:31;;;;;;;45.63;30.65;;;17.60;99.90;;;;;;5100053;28;20434;-82
2022/08/22 06:21:08;;;;;;;41.47;29.17;;;17.60;99.90;;;;;;5114701;28;20030;-78
2022/08/22 06:23:44;;;;;;;44.30;29.73;;;17.70;99.90;;;;;;5114157;28;20106;-77
2022/08/22 06:26:11;;;;;;;42.67;29.27;;;17.60;99.90;;;;;;5113268;28;20027;-78
2022/08/22 06:28:44;;;;;;;41.88;28.08;;;17.60;99.90;;;;;;5108127;27;20035;-78
2022/08/22 06:31:20;;;;;;;42.63;28.80;;;17.70;99.90;;;;;;5095988;28;20480;-82
2022/08/22 06:33:56;;;;;;;38.53;26.88;;;17.70;99.90;;;;;;5105371;28;20111;-82
2022/08/22 06:36:29;;;;;;;45.92;28.95;;;17.80;99.90;;;;;;5114637;28;20399;-78
2022/08/22 06:39:08;;;;;;;44.03;29.58;;;17.70;99.90;;;;;;5112812;28;20106;-77
2022/08/22 06:41:53;;;;;;;42.03;30.05;;;17.70;99.90;;;;;;5104705;28;20369;-83
2022/08/22 06:44:24;;;;;;;43.97;29.13;;;17.60;99.90;;;;;;5109236;28;20034;-83
2022/08/22 06:46:54;;;;;;;45.08;31.50;;;17.60;99.90;;;;;;5092651;28;20547;-78
2022/08/22 06:49:21;;;;;;;48.50;31.80;;;17.50;99.90;;;;;;5107869;27;20036;-83
2022/08/22 06:51:49;;;;;;;52.13;31.88;;;17.40;99.90;;;;;;5096637;28;20020;-83
2022/08/22 06:54:23;;;;;;;50.45;30.92;;;17.50;99.90;;;;;;5093316;27;20040;-77
2022/08/22 06:56:51;;;;;;;52.38;30.83;;;17.50;99.90;;;;;;5093898;28;20028;-82
2022/08/22 06:59:24;;;;;;;51.70;31.48;;;17.40;99.90;;;;;;5107659;28;20477;-78
2022/08/22 07:02:06;;;;;;;49.53;33.10;;;17.40;99.90;;;;;;5113349;28;20385;-82
2022/08/22 07:04:32;;;;;;;54.88;34.17;;;17.30;99.90;;;;;;5112921;28;20027;-82
2022/08/22 07:07:00;;;;;;;59.88;35.47;;;17.30;99.90;;;;;;5112277;28;20118;-83
2022/08/22 07:09:35;;;;;;;59.60;34.63;;;17.30;99.90;;;;;;5111340;28;20027;-78
2022/08/22 07:12:09;;;;;;;55.38;33.78;;;17.30;99.90;;;;;;5111995;28;20027;-78
2022/08/22 07:14:44;;;;;;;50.42;31.13;;;17.40;99.90;;;;;;5111744;28;20028;-78
2022/08/22 07:17:24;;;;;;;51.50;32.47;;;17.40;99.90;;;;;;5110617;28;20119;-83
2022/08/22 07:20:23;;;;;;;53.00;32.72;;;17.50;99.90;;;;;;5112478;28;20027;-82
2022/08/22 07:23:03;;;;;;;53.00;31.77;;;17.50;99.90;;;;;;5111770;28;20024;-82
2022/08/22 07:25:30;;;;;;;45.97;29.55;;;17.50;99.90;;;;;;5113903;28;20047;-83
2022/08/22 07:28:12;;;;;;;49.03;30.73;;;17.60;99.90;;;;;;5120744;28;20483;-83
2022/08/22 07:31:00;;;;;;;51.43;31.73;;;17.60;99.90;;;;;;5113791;28;20024;-82
2022/08/22 07:33:43;;;;;;;48.92;31.42;;;17.60;99.90;;;;;;5111765;28;20819;-78
2022/08/22 07:36:25;;;;;;;;;;;17.60;99.90;;;;;;5112759;28;20027;-83
2022/08/22 07:39:15;;;;;;;47.97;30.85;;;17.60;99.90;;;;;;5113251;28;19911;-77
2022/08/22 07:41:59;;;;;;;52.25;33.35;;;17.70;99.90;;;;;;5113805;28;20107;-82
2022/08/22 07:44:34;;;;;;;53.83;32.53;;;17.70;99.90;;;;;;5112244;28;20020;-78
2022/08/22 07:47:11;;;;;;;46.20;31.77;;;17.70;99.90;;;;;;5113736;28;20381;-77
2022/08/22 07:49:57;;;;;;;48.95;31.23;;;17.70;99.90;;;;;;5111957;28;20046;-82
2022/08/22 07:52:25;;;;;;;53.85;32.97;;;17.70;99.90;;;;;;5111933;28;20126;-78
2022/08/22 07:54:52;;;;;;;50.60;33.00;;;17.60;99.90;;;;;;5112567;28;20034;-83
2022/08/22 07:57:29;;;;;;;51.60;31.88;;;17.70;99.90;;;;;;5111762;28;20020;-78
2022/08/22 07:59:58;;;;;;;50.83;32.10;;;17.70;99.90;;;;;;5112178;28;20023;-78
2022/08/22 08:02:25;;;;;;;46.05;31.08;;;17.70;99.90;;;;;;5113417;28;20023;-77
2022/08/22 08:04:54;;;;;;;51.78;31.83;;;17.60;99.90;;;;;;5111828;28;20028;-83
2022/08/22 08:07:23;;;;;;;50.65;32.50;;;17.70;99.90;;;;;;5111627;28;20024;-78
2022/08/22 08:09:55;;;;;;;50.08;31.83;;;17.80;99.90;;;;;;5112480;28;20081;-83
2022/08/22 08:12:34;;;;;;;50.38;32.83;;;17.80;99.90;;;;;;5113131;28;20020;-78
2022/08/22 08:15:03;;;;;;;51.95;32.80;;;17.80;99.90;;;;;;5113382;28;20036;-83
2022/08/22 08:17:32;;;;;;;55.60;32.30;;;17.90;99.90;;;;;;5112080;28;20024;-83
2022/08/22 08:20:02;;;;;;;59.15;33.53;;;17.90;99.90;;;;;;5113220;28;20016;-78
2022/08/22 08:22:29;;;;;;;57.70;32.78;;;18.00;99.90;;;;;;5111436;28;20119;-83
2022/08/22 08:24:58;;;;;;;56.90;32.05;;;18.00;99.90;;;;;;5111979;28;20111;-83
2022/08/22 08:30:34;;;;;;;55.05;32.03;;;18.10;99.90;;;;;;5113447;28;20070;-83
2022/08/22 08:33:02;;;;;;;55.33;31.98;;;18.20;99.90;;;;;;5112857;28;20031;-78
2022/08/22 08:35:34;;;;;;;51.78;31.95;;;18.20;99.90;;;;;;5111563;28;20096;-78
2022/08/22 08:38:09;;;;;;;54.05;33.60;;;18.30;99.90;;;;;;5111853;28;20035;-82
2022/08/22 08:40:46;;;;;;;43.42;29.33;;;18.40;99.90;;;;;;5115372;28;20028;-78
2022/08/22 08:43:41;;;;;;;42.50;28.25;;;18.50;99.90;;;;;;5116216;28;20020;-78
2022/08/22 08:46:26;;;;;;;42.90;27.25;;;18.60;99.90;;;;;;5116819;28;20024;-77
2022/08/22 08:49:14;;;;;;;44.28;27.73;;;18.70;99.90;;;;;;5114713;28;20544;-78
2022/08/22 08:51:55;;;;;;;39.60;26.45;;;18.70;99.90;;;;;;5116615;27;20032;-82
2022/08/22 08:54:39;;;;;;;44.08;30.90;;;18.80;99.90;;;;;;5114595;28;20556;-83
2022/08/22 08:57:12;;;;;;;42.03;27.90;;;18.90;99.90;;;;;;5116421;28;20020;-78
2022/08/22 09:00:03;;;;;;;35.13;26.67;;;19.10;99.90;;;;;;5115921;27;20065;-75
2022/08/22 09:02:40;;;;;;;32.40;24.30;;;19.20;99.90;;;;;;5115180;28;20114;-80
2022/08/22 09:05:17;;;;;;;35.80;25.35;;;19.40;99.90;;;;;;5116374;28;20102;-75
2022/08/22 09:07:52;;;;;;;40.90;27.70;;;19.60;99.90;;;;;;5116364;28;20024;-80
2022/08/22 09:10:48;;;;;;;41.33;27.10;;;19.80;99.90;;;;;;5116156;28;20028;-75
2022/08/22 09:13:17;;;;;;;37.10;25.80;;;20.00;99.90;;;;;;5115663;28;20085;-80
2022/08/22 09:16:18;;;;;;;33.22;24.90;;;20.30;99.90;;;;;;5116585;28;20026;-79
2022/08/22 09:19:00;;;;;;;30.15;22.88;;;20.60;99.90;;;;;;5088077;28;20478;-75
2022/08/22 09:21:29;;;;;;;31.60;23.30;;;20.90;99.90;;;;;;5094258;28;20020;-80
2022/08/22 09:24:19;;;;;;;26.75;20.83;;;21.10;99.90;;;;;;5105540;28;20515;-80
2022/08/22 09:26:51;;;;;;;26.25;20.52;;;21.10;99.90;;;;;;5118988;27;20023;-75
2022/08/22 09:29:32;;;;;;;28.10;21.50;;;21.10;99.90;;;;;;5115955;27;20027;-75
2022/08/22 09:32:00;;;;;;;30.52;20.80;;;21.40;99.90;;;;;;5113775;28;20477;-75
2022/08/22 09:34:44;;;;;;;26.63;19.15;;;21.70;99.90;;;;;;5113794;28;20107;-76
2022/08/22 09:37:53;;;;;;;24.13;19.02;;;21.90;99.90;;;;;;5113997;28;20476;-75
2022/08/22 09:40:38;;;;;;;26.48;20.67;;;21.50;99.90;;;;;;5114444;28;20043;-80
2022/08/22 09:43:14;;;;;;;26.77;19.48;;;21.50;99.90;;;;;;5114329;28;20073;-80
2022/08/22 09:45:40;;;;;;;26.58;19.85;;;21.60;99.90;;;;;;5113823;28;20042;-75
2022/08/22 09:48:40;;;;;;;24.52;17.83;;;21.70;99.90;;;;;;5113788;28;20027;-80
2022/08/22 09:51:33;;;;;;;24.23;17.92;;;21.90;99.90;;;;;;5112800;28;20067;-75
2022/08/22 09:54:04;;;;;;;22.20;17.95;;;22.00;99.90;;;;;;5114821;28;20023;-80
2022/08/22 09:56:54;;;;;;;23.25;17.67;;;22.20;99.90;;;;;;5114973;28;20700;-80
2022/08/22 09:59:34;;;;;;;25.40;18.67;;;22.10;99.90;;;;;;5113420;28;20023;-76
2022/08/22 10:02:39;;;;;;;21.30;16.90;;;22.20;99.90;;;;;;5113460;28;20027;-76
2022/08/22 10:05:39;;;;;;;22.48;17.80;;;22.20;99.90;;;;;;5080024;28;20127;-80
2022/08/22 10:08:28;;;;;;;26.30;18.08;;;22.30;99.90;;;;;;5107208;28;20500;-80
2022/08/22 10:11:03;;;;;;;23.70;17.65;;;22.30;99.90;;;;;;5113514;28;20031;-76
2022/08/22 10:13:59;;;;;;;20.15;17.10;;;22.30;99.90;;;;;;5113439;28;20027;-80
2022/08/22 10:16:48;;;;;;;24.15;19.52;;;22.30;99.90;;;;;;5114304;28;20081;-80
2022/08/22 10:19:29;;;;;;;23.38;17.67;;;22.20;99.90;;;;;;5114357;28;20024;-80
2022/08/22 10:22:35;;;;;;;19.38;16.83;;;22.20;99.90;;;;;;5114938;27;20095;-80
2022/08/22 10:25:21;;;;;;;21.75;17.27;;;22.20;99.90;;;;;;5113219;28;20024;-80
2022/08/22 10:28:04;;;;;;;20.35;16.27;;;22.20;99.90;;;;;;5121395;27;20094;-76
2022/08/22 10:31:01;;;;;;;27.67;19.38;;;22.20;99.90;;;;;;5113809;28;20035;-76
2022/08/22 10:33:32;;;;;;;22.85;18.23;;;22.50;99.90;;;;;;5113017;28;20040;-80
2022/08/22 10:36:14;;;;;;;20.17;17.20;;;22.70;99.90;;;;;;5113187;28;20024;-80
2022/08/22 10:38:43;;;;;;;22.73;17.52;;;22.60;99.90;;;;;;5114137;28;20462;-80
2022/08/22 10:41:57;;;;;;;22.10;16.00;;;22.50;99.90;;;;;;5113844;28;20030;-76
2022/08/22 10:44:39;;;;;;;22.63;17.83;;;22.60;99.90;;;;;;5095304;28;20040;-80
2022/08/22 10:47:14;;;;;;;22.65;16.23;;;22.70;99.90;;;;;;5113841;28;20058;-80
2022/08/22 10:49:53;;;;;;;22.33;17.25;;;22.60;99.90;;;;;;5113864;28;20048;-76
2022/08/22 10:52:22;;;;;;;21.10;16.02;;;22.60;99.90;;;;;;5112526;28;20030;-80
2022/08/22 10:54:55;;;;;;;22.63;17.00;;;22.50;99.90;;;;;;5113827;28;20027;-76
2022/08/22 10:57:31;;;;;;;20.10;18.00;;;22.60;99.90;;;;;;5112293;28;20030;-80
2022/08/22 11:00:30;;;;;;;22.05;18.10;;;22.50;99.90;;;;;;5112250;28;20076;-76
2022/08/22 11:03:25;;;;;;;26.27;18.98;;;22.60;99.90;;;;;;5106738;28;20043;-80
2022/08/22 11:05:59;;;;;;;24.70;18.33;;;22.60;99.90;;;;;;5098962;28;20659;-76
2022/08/22 11:08:58;;;;;;;21.33;17.25;;;22.70;99.90;;;;;;5112072;28;20055;-76
2022/08/22 11:11:35;;;;;;;27.23;18.83;;;22.60;99.90;;;;;;5111854;28;20043;-76
2022/08/22 11:14:20;;;;;;;26.65;17.42;;;22.70;99.90;;;;;;5113775;28;20480;-81
2022/08/22 11:17:06;;;;;;;23.40;19.33;;;22.80;99.90;;;;;;5113282;28;20023;-77
2022/08/22 11:19:43;;;;;;;25.58;18.70;;;22.70;99.90;;;;;;5113229;28;20028;-80
2022/08/22 11:22:34;;;;;;;24.88;20.40;;;22.70;99.90;;;;;;5113486;28;20411;-80
2022/08/22 11:25:15;;;;;;;22.98;18.35;;;22.80;99.90;;;;;;5113486;28;20039;-80
2022/08/22 11:27:55;;;;;;;24.40;20.85;;;23.00;99.90;;;;;;5120795;27;20016;-81
2022/08/22 11:30:58;;;;;;;23.35;18.13;;;22.90;99.90;;;;;;5112914;28;20038;-77
2022/08/22 11:34:02;;;;;;;21.35;17.38;;;22.80;99.90;;;;;;5113439;28;20049;-76
2022/08/22 11:36:51;;;;;;;22.35;18.55;;;22.80;99.90;;;;;;5113100;28;20058;-80
2022/08/22 11:39:41;;;;;;;24.30;18.35;;;22.90;99.90;;;;;;5112962;28;20449;-81
2022/08/22 11:42:19;;;;;;;24.40;18.60;;;22.90;99.90;;;;;;5113463;28;20048;-76
2022/08/22 11:44:52;;;;;;;22.15;18.02;;;23.00;99.90;;;;;;5112861;28;20370;-76
2022/08/22 11:47:22;;;;;;;21.27;17.60;;;23.00;99.90;;;;;;5111752;28;20027;-76
2022/08/22 11:49:51;;;;;;;22.65;17.02;;;23.10;99.90;;;;;;5113134;28;20052;-76
2022/08/22 11:52:17;;;;;;;23.98;16.75;;;23.10;99.90;;;;;;5112662;28;20031;-81
2022/08/22 11:55:01;;;;;;;24.48;16.15;;;23.10;99.90;;;;;;5111899;28;20037;-78
2022/08/22 11:57:40;;;;;;;21.27;16.58;;;23.10;99.90;;;;;;5112893;28;20051;-81
2022/08/22 12:00:17;;;;;;;21.80;17.15;;;23.10;99.90;;;;;;5112851;28;20473;-76
2022/08/22 12:02:57;;;;;;;19.35;16.63;;;23.10;99.90;;;;;;5111558;28;20030;-77
2022/08/22 12:05:43;;;;;;;21.17;15.70;;;23.00;99.90;;;;;;5112838;28;20110;-76
2022/08/22 12:08:18;;;;;;;20.77;16.65;;;23.10;99.90;;;;;;5112961;28;20019;-81
2022/08/22 12:11:15;;;;;;;19.20;15.75;;;23.10;99.90;;;;;;5111225;28;20435;-81
2022/08/22 12:13:54;;;;;;;19.92;16.75;;;23.20;99.90;;;;;;5113786;28;20039;-77
2022/08/22 12:16:42;;;;;;;19.40;16.70;;;23.20;99.90;;;;;;5115497;28;20027;-82
2022/08/22 12:19:17;;;;;;;20.75;16.30;;;23.20;99.90;;;;;;5116671;27;20385;-81
2022/08/22 12:22:04;;;;;;;19.95;16.70;;;23.20;99.90;;;;;;5116508;28;20051;-81
2022/08/22 12:24:35;;;;;;;20.63;16.85;;;23.20;99.90;;;;;;5116647;27;20030;-81
2022/08/22 12:27:10;;;;;;;20.13;17.35;;;23.30;99.90;;;;;;5124259;27;20034;-81
2022/08/22 12:30:06;;;;;;;22.20;17.10;;;23.20;99.90;;;;;;5095933;28;20385;-82
2022/08/22 12:33:08;;;;;;;21.00;18.80;;;23.30;99.90;;;;;;5094757;28;20582;-76
2022/08/22 12:35:56;;;;;;;21.43;16.87;;;23.30;99.90;;;;;;5096112;28;20028;-81
2022/08/22 12:38:41;;;;;;;21.73;18.30;;;23.40;99.90;;;;;;5094875;28;20024;-76
2022/08/22 12:41:37;;;;;;;20.83;18.63;;;23.50;99.90;;;;;;5094629;28;20117;-76
2022/08/22 12:44:41;;;;;;;22.80;18.42;;;23.60;99.90;;;;;;5094637;28;20031;-76
2022/08/22 12:47:13;;;;;;;21.27;18.75;;;23.70;99.90;;;;;;5071888;28;20040;-81
2022/08/22 12:50:01;;;;;;;22.38;18.45;;;23.90;99.90;;;;;;5095465;28;20101;-77
2022/08/22 12:52:45;;;;;;;23.98;20.10;;;24.00;99.90;;;;;;5095693;28;20107;-76
2022/08/22 12:55:44;;;;;;;22.63;19.42;;;24.20;99.90;;;;;;5095631;28;20024;-81
2022/08/22 12:58:28;;;;;;;18.42;16.45;;;24.30;99.90;;;;;;5087551;28;20508;-77
2022/08/22 13:00:59;;;;;;;23.95;17.15;;;24.60;99.90;;;;;;5094255;28;20473;-77
2022/08/22 13:03:43;;;;;;;21.35;18.35;;;24.90;99.90;;;;;;5095384;28;20032;-80
2022/08/22 13:06:36;;;;;;;19.02;17.02;;;25.10;99.90;;;;;;5094265;28;20020;-77
2022/08/22 13:09:15;;;;;;;19.15;17.23;;;25.30;99.90;;;;;;5093580;28;20021;-77
2022/08/22 13:11:44;;;;;;;21.10;18.00;;;25.30;99.90;;;;;;5095176;28;20031;-77
2022/08/22 13:14:13;;;;;;;21.92;16.75;;;25.40;99.90;;;;;;5095091;28;20035;-81
2022/08/22 13:16:47;;;;;;;20.23;17.52;;;25.30;99.90;;;;;;5094940;28;20032;-77
2022/08/22 13:19:21;;;;;;;19.98;16.67;;;25.40;99.90;;;;;;5094742;28;20030;-78
2022/08/22 13:21:56;;;;;;;20.05;15.50;;;25.30;99.90;;;;;;5093761;28;20028;-78
2022/08/22 13:24:41;;;;;;;21.75;16.10;;;25.30;99.90;;;;;;5094658;28;20023;-80
2022/08/22 13:27:15;;;;;;;18.05;16.08;;;25.10;99.90;;;;;;5111638;27;20350;-77
2022/08/22 13:30:04;;;;;;;19.60;14.95;;;25.10;99.90;;;;;;5114993;28;20078;-81
2022/08/22 13:32:43;;;;;;;17.10;15.05;;;25.20;99.90;;;;;;5114942;27;20116;-78
2022/08/22 13:35:16;;;;;;;17.25;14.27;;;25.10;99.90;;;;;;5115080;28;20028;-78
2022/08/22 13:37:45;;;;;;;15.60;14.05;;;25.30;99.90;;;;;;5115146;28;20024;-78
2022/08/22 13:40:24;;;;;;;15.10;13.43;;;25.40;99.90;;;;;;5114493;27;20024;-80
2022/08/22 13:43:00;;;;;;;17.80;13.80;;;25.60;99.90;;;;;;5114871;28;20031;-80